createdAt,value
2023-02-16T00:01:21.163Z,101582.00
2023-02-16T00:03:49.226Z,101587.00
2023-02-16T00:06:18.459Z,101573.00
2023-02-16T00:08:47.799Z,101561.00
2023-02-16T00:11:36.393Z,101591.00
2023-02-16T00:14:06.417Z,101591.00
2023-02-16T00:16:34.155Z,101591.00
2023-02-16T00:19:01.845Z,101589.00
2023-02-16T00:21:31.372Z,101581.00
2023-02-16T00:23:59.079Z,101584.00
2023-02-16T00:26:28.764Z,101577.00
2023-02-16T00:28:59.139Z,101564.00
2023-02-16T00:31:29.220Z,101568.00
2023-02-16T00:33:57.068Z,101573.00
2023-02-16T00:36:25.010Z,101570.00
2023-02-16T00:38:54.324Z,101561.00
2023-02-16T00:41:51.219Z,101568.00
2023-02-16T00:44:21.990Z,101566.00
2023-02-16T00:46:49.781Z,101553.00
2023-02-16T00:49:18.683Z,101548.00
2023-02-16T00:51:46.676Z,101552.00
2023-02-16T00:54:15.773Z,101552.00
2023-02-16T00:56:44.050Z,101552.00
2023-02-16T00:59:17.679Z,101556.00
2023-02-16T01:01:45.664Z,101558.00
2023-02-16T01:04:20.180Z,101561.00
2023-02-16T01:07:05.508Z,101549.00
2023-02-16T01:09:52.611Z,101561.00
2023-02-16T01:12:22.472Z,101564.00
2023-02-16T01:14:53.800Z,101545.00
2023-02-16T01:17:22.048Z,101550.00
2023-02-16T01:19:49.776Z,101547.00
2023-02-16T01:22:18.163Z,101537.00
2023-02-16T01:24:47.312Z,101542.00
2023-02-16T01:27:15.140Z,101538.00
2023-02-16T01:29:42.870Z,101545.00
2023-02-16T01:32:13.062Z,101533.00
2023-02-16T01:34:41.184Z,101533.00
2023-02-16T01:37:15.404Z,101538.00
2023-02-16T01:39:43.153Z,101544.00
2023-02-16T01:42:20.919Z,101532.00
2023-02-16T01:44:52.299Z,101504.00
2023-02-16T01:47:33.417Z,101544.00
2023-02-16T01:50:03.562Z,101532.00
2023-02-16T01:52:35.586Z,101493.00
2023-02-16T01:55:08.920Z,101529.00
2023-02-16T01:57:45.978Z,101526.00
2023-02-16T02:00:18.028Z,101527.00
2023-02-16T02:02:49.255Z,101526.00
2023-02-16T02:05:37.152Z,101522.00
2023-02-16T02:08:12.466Z,101521.00
2023-02-16T02:10:51.343Z,101514.00
2023-02-16T02:13:23.530Z,101503.00
2023-02-16T02:15:51.351Z,101512.00
2023-02-16T02:18:19.314Z,101512.00
2023-02-16T02:21:21.111Z,101517.00
2023-02-16T02:24:16.457Z,101493.00
2023-02-16T02:27:09.344Z,101503.00
2023-02-16T02:29:57.692Z,101504.00
2023-02-16T02:32:34.312Z,101500.00
2023-02-16T02:35:12.251Z,101507.00
2023-02-16T02:37:47.255Z,101485.00
2023-02-16T02:40:23.017Z,101493.00
2023-02-16T02:43:03.221Z,101497.00
2023-02-16T02:45:34.918Z,101495.00
2023-02-16T02:48:02.671Z,101502.00
2023-02-16T02:51:02.749Z,101505.00
2023-02-16T02:53:31.292Z,101495.00
2023-02-16T02:56:18.432Z,101494.00
2023-02-16T02:59:08.718Z,101507.00
2023-02-16T03:01:39.197Z,101489.00
2023-02-16T03:04:09.610Z,101494.00
2023-02-16T03:06:40.506Z,101485.00
2023-02-16T03:09:11.465Z,101494.00
2023-02-16T03:11:57.268Z,101503.00
2023-02-16T03:14:29.939Z,101500.00
2023-02-16T03:17:17.652Z,101506.00
2023-02-16T03:20:06.783Z,101501.00
2023-02-16T03:22:53.794Z,101496.00
2023-02-16T03:25:41.412Z,101509.00
2023-02-16T03:28:27.656Z,101512.00
2023-02-16T03:30:57.492Z,101484.00
2023-02-16T03:33:26.439Z,101504.00
2023-02-16T03:35:55.326Z,101499.00
2023-02-16T03:38:23.704Z,101498.00
2023-02-16T03:40:53.484Z,101483.00
2023-02-16T03:43:25.576Z,101499.00
2023-02-16T03:45:53.760Z,101470.00
2023-02-16T03:48:23.205Z,101469.00
2023-02-16T03:50:51.059Z,101503.00
2023-02-16T03:53:19.116Z,101489.00
2023-02-16T03:55:48.867Z,101485.00
2023-02-16T03:58:18.500Z,101491.00
2023-02-16T04:00:46.632Z,101488.00
2023-02-16T04:03:14.594Z,101471.00
2023-02-16T04:05:43.911Z,101488.00
2023-02-16T04:08:12.228Z,101488.00
2023-02-16T04:10:40.861Z,101489.00
2023-02-16T04:13:07.796Z,101484.00
2023-02-16T04:15:35.786Z,101481.00
2023-02-16T04:18:03.743Z,101468.00
2023-02-16T04:20:33.741Z,101470.00
2023-02-16T04:23:03.513Z,101484.00
2023-02-16T04:25:31.693Z,101496.00
2023-02-16T04:27:59.678Z,101494.00
2023-02-16T04:30:30.725Z,101495.00
2023-02-16T04:32:59.346Z,101495.00
2023-02-16T04:35:27.454Z,101494.00
2023-02-16T04:37:55.217Z,101490.00
2023-02-16T04:40:24.393Z,101484.00
2023-02-16T04:42:52.453Z,101461.00
2023-02-16T04:45:20.359Z,101442.00
2023-02-16T04:47:48.153Z,101464.00
2023-02-16T04:50:15.898Z,101439.00
2023-02-16T04:52:43.648Z,101455.00
2023-02-16T04:55:11.627Z,101430.00
2023-02-16T04:57:41.210Z,101413.00
2023-02-16T05:00:12.055Z,101446.00
2023-02-16T05:02:39.778Z,101449.00
2023-02-16T05:05:08.486Z,101448.00
2023-02-16T05:07:36.896Z,101449.00
2023-02-16T05:10:05.818Z,101455.00
2023-02-16T05:12:51.221Z,101442.00
2023-02-16T05:15:20.400Z,101446.00
2023-02-16T05:17:48.130Z,101455.00
2023-02-16T05:20:15.882Z,101452.00
2023-02-16T05:22:45.541Z,101431.00
2023-02-16T05:25:13.733Z,101464.00
2023-02-16T05:27:41.731Z,101451.00
2023-02-16T05:30:10.623Z,101469.00
2023-02-16T05:32:39.732Z,101467.00
2023-02-16T05:35:07.807Z,101461.00
2023-02-16T05:37:42.350Z,101457.00
2023-02-16T05:40:11.677Z,101452.00
2023-02-16T05:42:39.386Z,101476.00
2023-02-16T05:45:07.614Z,101459.00
2023-02-16T05:47:35.352Z,101422.00
2023-02-16T05:50:04.581Z,101435.00
2023-02-16T05:52:32.383Z,101459.00
2023-02-16T05:55:00.115Z,101460.00
2023-02-16T05:57:28.034Z,101463.00
2023-02-16T05:59:55.825Z,101468.00
2023-02-16T06:02:23.667Z,101469.00
2023-02-16T06:04:51.455Z,101467.00
2023-02-16T06:07:21.996Z,101431.00
2023-02-16T06:09:49.742Z,101480.00
2023-02-16T06:12:17.477Z,101435.00
2023-02-16T06:14:45.183Z,101459.00
2023-02-16T06:17:13.069Z,101475.00
2023-02-16T06:19:40.871Z,101481.00
2023-02-16T06:22:08.573Z,101477.00
2023-02-16T06:24:38.342Z,101468.00
2023-02-16T06:27:06.441Z,101476.00
2023-02-16T06:29:34.238Z,101470.00
2023-02-16T06:32:02.146Z,101472.00
2023-02-16T06:34:30.045Z,101472.00
2023-02-16T06:36:58.311Z,101475.00
2023-02-16T06:39:26.101Z,101466.00
2023-02-16T06:41:55.375Z,101469.00
2023-02-16T06:44:23.181Z,101453.00
2023-02-16T06:46:51.097Z,101460.00
2023-02-16T06:49:20.597Z,101476.00
2023-02-16T06:51:49.634Z,101454.00
2023-02-16T06:54:18.434Z,101484.00
2023-02-16T06:56:46.798Z,101481.00
2023-02-16T06:59:16.210Z,101490.00
2023-02-16T07:01:45.433Z,101473.00
2023-02-16T07:04:13.771Z,101478.00
2023-02-16T07:06:41.867Z,101486.00
2023-02-16T07:09:11.640Z,101489.00
2023-02-16T07:11:40.518Z,101482.00
2023-02-16T07:14:08.352Z,101496.00
2023-02-16T07:16:37.466Z,101496.00
2023-02-16T07:19:05.664Z,101485.00
2023-02-16T07:21:33.882Z,101456.00
2023-02-16T07:24:01.860Z,101494.00
2023-02-16T07:26:29.627Z,101486.00
2023-02-16T07:28:57.866Z,101459.00
2023-02-16T07:31:26.641Z,101497.00
2023-02-16T07:33:56.015Z,101483.00
2023-02-16T07:36:24.010Z,101489.00
2023-02-16T07:38:52.195Z,101489.00
2023-02-16T07:41:20.099Z,101487.00
2023-02-16T07:43:48.083Z,101466.00
2023-02-16T07:46:15.890Z,101497.00
2023-02-16T07:48:43.871Z,101434.00
2023-02-16T07:51:12.993Z,101481.00
2023-02-16T07:53:40.767Z,101481.00
2023-02-16T07:56:08.525Z,101492.00
2023-02-16T07:58:36.888Z,101494.00
2023-02-16T08:01:09.694Z,101476.00
2023-02-16T08:03:37.550Z,101507.00
2023-02-16T08:06:06.088Z,101485.00
2023-02-16T08:08:36.003Z,101495.00
2023-02-16T08:11:10.494Z,101494.00
2023-02-16T08:13:38.879Z,101475.00
2023-02-16T08:16:09.699Z,101501.00
2023-02-16T08:18:37.948Z,101491.00
2023-02-16T08:21:13.991Z,101482.00
2023-02-16T08:23:47.489Z,101480.00
2023-02-16T08:26:17.141Z,101491.00
2023-02-16T08:28:47.125Z,101484.00
2023-02-16T08:31:15.753Z,101488.00
2023-02-16T08:33:44.913Z,101503.00
2023-02-16T08:36:18.948Z,101485.00
2023-02-16T08:38:50.418Z,101488.00
2023-02-16T08:41:18.984Z,101490.00
2023-02-16T08:43:47.051Z,101442.00
2023-02-16T08:46:15.182Z,101442.00
2023-02-16T08:48:43.917Z,101454.00
2023-02-16T08:51:15.420Z,101480.00
2023-02-16T08:53:43.232Z,101480.00
2023-02-16T08:56:12.532Z,101481.00
2023-02-16T08:58:40.782Z,101483.00
2023-02-16T09:01:09.463Z,101496.00
2023-02-16T09:03:38.990Z,101488.00
2023-02-16T09:06:07.448Z,101485.00
2023-02-16T09:08:37.611Z,101485.00
2023-02-16T09:11:07.427Z,101479.00
2023-02-16T09:13:40.738Z,101482.00
2023-02-16T09:16:10.887Z,101481.00
2023-02-16T09:18:39.048Z,101470.00
2023-02-16T09:21:10.882Z,101461.00
2023-02-16T09:23:38.814Z,101466.00
2023-02-16T09:26:08.144Z,101476.00
2023-02-16T09:28:39.288Z,101484.00
2023-02-16T09:31:11.584Z,101469.00
2023-02-16T09:33:43.543Z,101490.00
2023-02-16T09:36:13.777Z,101478.00
2023-02-16T09:38:41.823Z,101462.00
2023-02-16T09:41:17.217Z,101485.00
2023-02-16T09:43:51.715Z,101489.00
2023-02-16T09:46:23.456Z,101497.00
2023-02-16T09:48:53.903Z,101502.00
2023-02-16T09:51:33.925Z,101472.00
2023-02-16T09:54:12.117Z,101482.00
2023-02-16T09:56:43.651Z,101487.00
2023-02-16T09:59:19.266Z,101486.00
2023-02-16T10:01:53.622Z,101497.00
2023-02-16T10:04:35.342Z,101500.00
2023-02-16T10:07:14.973Z,101497.00
2023-02-16T10:09:49.086Z,101476.00
2023-02-16T10:12:21.794Z,101482.00
2023-02-16T10:14:53.514Z,101494.00
2023-02-16T10:17:29.860Z,101490.00
2023-02-16T10:20:02.763Z,101467.00
2023-02-16T10:22:36.102Z,101507.00
2023-02-16T10:25:10.143Z,101487.00
2023-02-16T10:27:40.818Z,101506.00
2023-02-16T10:30:16.543Z,101517.00
2023-02-16T10:32:56.027Z,101486.00
2023-02-16T10:35:31.443Z,101503.00
2023-02-16T10:38:06.048Z,101461.00
2023-02-16T10:40:48.253Z,101476.00
2023-02-16T10:43:20.843Z,101485.00
2023-02-16T10:45:53.134Z,101477.00
2023-02-16T10:48:21.991Z,101487.00
2023-02-16T10:50:58.430Z,101453.00
2023-02-16T10:53:40.116Z,101463.00
2023-02-16T10:56:45.376Z,101479.00
2023-02-16T10:59:16.766Z,101452.00
2023-02-16T11:01:48.339Z,101504.00
2023-02-16T11:04:36.624Z,101482.00
2023-02-16T11:07:06.939Z,101497.00
2023-02-16T11:09:34.778Z,101477.00
2023-02-16T11:12:03.560Z,101461.00
2023-02-16T11:14:32.345Z,101482.00
2023-02-16T11:17:08.573Z,101495.00
2023-02-16T11:19:37.619Z,101492.00
2023-02-16T11:22:06.055Z,101493.00
2023-02-16T11:24:36.892Z,101483.00
2023-02-16T11:27:08.568Z,101498.00
2023-02-16T11:29:36.285Z,101487.00
2023-02-16T11:32:12.032Z,101491.00
2023-02-16T11:34:44.023Z,101482.00
2023-02-16T11:37:17.198Z,101467.00
2023-02-16T11:39:51.329Z,101443.00
2023-02-16T11:42:28.408Z,101477.00
2023-02-16T11:44:58.254Z,101459.00
2023-02-16T11:47:32.463Z,101435.00
2023-02-16T11:50:20.228Z,101468.00
2023-02-16T11:52:49.979Z,101453.00
2023-02-16T11:55:24.918Z,101463.00
2023-02-16T11:57:52.872Z,101469.00
2023-02-16T12:00:23.855Z,101450.00
2023-02-16T12:03:29.867Z,101469.00
2023-02-16T12:06:12.190Z,101466.00
2023-02-16T12:09:08.473Z,101456.00
2023-02-16T12:11:49.368Z,101464.00
2023-02-16T12:14:27.368Z,101471.00
2023-02-16T12:17:04.024Z,101450.00
2023-02-16T12:19:42.261Z,101448.00
2023-02-16T12:22:23.006Z,101475.00
2023-02-16T12:25:03.931Z,101443.00
2023-02-16T12:27:39.470Z,101418.00
2023-02-16T12:30:23.627Z,101457.00
2023-02-16T12:33:06.392Z,101458.00
2023-02-16T12:35:53.746Z,101453.00
2023-02-16T12:38:32.109Z,101442.00
2023-02-16T12:41:15.509Z,101422.00
2023-02-16T12:43:46.708Z,101437.00
2023-02-16T12:46:19.481Z,101433.00
2023-02-16T12:48:51.295Z,101434.00
2023-02-16T12:51:24.440Z,101422.00
2023-02-16T12:54:01.145Z,101408.00
2023-02-16T12:56:32.919Z,101404.00
2023-02-16T12:59:16.742Z,101421.00
2023-02-16T13:01:47.502Z,101416.00
2023-02-16T13:04:22.698Z,101414.00
2023-02-16T13:06:59.959Z,101395.00
2023-02-16T13:09:37.805Z,101385.00
2023-02-16T13:12:12.660Z,101404.00
2023-02-16T13:14:43.891Z,101398.00
2023-02-16T13:17:16.129Z,101407.00
2023-02-16T13:19:46.338Z,101375.00
2023-02-16T13:22:33.198Z,101381.00
2023-02-16T13:25:23.035Z,101408.00
2023-02-16T13:27:59.496Z,101385.00
2023-02-16T13:30:52.557Z,101404.00
2023-02-16T13:33:39.025Z,101404.00
2023-02-16T13:36:21.461Z,101400.00
2023-02-16T13:39:21.739Z,101365.00
2023-02-16T13:42:17.598Z,101369.00
2023-02-16T13:44:49.365Z,101397.00
2023-02-16T13:47:24.527Z,101390.00
2023-02-16T13:49:58.979Z,101365.00
2023-02-16T13:52:34.014Z,101388.00
2023-02-16T13:55:04.817Z,101346.00
2023-02-16T13:58:10.424Z,101368.00
2023-02-16T14:00:42.336Z,101371.00
2023-02-16T14:03:13.547Z,101336.00
2023-02-16T14:05:43.450Z,101334.00
2023-02-16T14:08:14.981Z,101335.00
2023-02-16T14:11:12.086Z,101332.00
2023-02-16T14:13:50.512Z,101345.00
2023-02-16T14:16:34.010Z,101340.00
2023-02-16T14:19:05.991Z,101345.00
2023-02-16T14:21:40.127Z,101327.00
2023-02-16T14:24:16.205Z,101319.00
2023-02-16T14:26:56.408Z,101330.00
2023-02-16T14:29:29.160Z,101340.00
2023-02-16T14:32:28.779Z,101332.00
2023-02-16T14:35:02.153Z,101342.00
2023-02-16T14:37:38.567Z,101315.00
2023-02-16T14:40:16.754Z,101321.00
2023-02-16T14:42:51.252Z,101311.00
2023-02-16T14:45:38.797Z,101315.00
2023-02-16T14:48:21.581Z,101292.00
2023-02-16T14:51:09.661Z,101319.00
2023-02-16T14:54:16.733Z,101329.00
2023-02-16T14:56:48.984Z,101337.00
2023-02-16T14:59:29.433Z,101292.00
2023-02-16T15:01:59.517Z,101311.00
2023-02-16T15:04:32.041Z,101312.00
2023-02-16T15:07:03.382Z,101325.00
2023-02-16T15:09:34.195Z,101336.00
2023-02-16T15:12:23.356Z,101345.00
2023-02-16T15:14:53.813Z,101343.00
2023-02-16T15:17:31.305Z,101332.00
2023-02-16T15:20:05.617Z,101352.00
2023-02-16T15:22:33.655Z,101330.00
2023-02-16T15:25:06.929Z,101337.00
2023-02-16T15:27:40.565Z,101339.00
2023-02-16T15:30:24.041Z,101313.00
2023-02-16T15:32:56.133Z,101322.00
2023-02-16T15:35:30.879Z,101329.00
2023-02-16T15:38:20.491Z,101322.00
2023-02-16T15:40:49.253Z,101299.00
2023-02-16T15:43:27.993Z,101310.00
2023-02-16T15:46:01.483Z,101313.00
2023-02-16T15:48:32.593Z,101294.00
2023-02-16T15:51:12.911Z,101294.00
2023-02-16T15:53:51.539Z,101315.00
2023-02-16T15:56:56.923Z,101298.00
2023-02-16T15:59:35.807Z,101322.00
2023-02-16T16:02:16.296Z,101314.00
2023-02-16T16:04:50.090Z,101314.00
2023-02-16T16:07:27.283Z,101323.00
2023-02-16T16:10:16.908Z,101284.00
2023-02-16T16:13:06.610Z,101306.00
2023-02-16T16:15:38.141Z,101302.00
2023-02-16T16:18:06.863Z,101308.00
2023-02-16T16:20:58.397Z,101322.00
2023-02-16T16:23:36.898Z,101332.00
2023-02-16T16:26:34.837Z,101313.00
2023-02-16T16:29:28.518Z,101309.00
2023-02-16T16:31:57.414Z,101316.00
2023-02-16T16:38:22.767Z,101284.00
2023-02-16T16:40:55.281Z,101314.00
2023-02-16T16:43:27.129Z,101315.00
2023-02-16T16:45:58.937Z,101317.00
2023-02-16T16:48:36.500Z,101331.00
2023-02-16T16:51:12.732Z,101331.00
2023-02-16T16:53:59.996Z,101279.00
2023-02-16T16:56:30.956Z,101299.00
2023-02-16T16:59:00.550Z,101319.00
2023-02-16T17:01:31.644Z,101336.00
2023-02-16T17:04:00.578Z,101310.00
2023-02-16T17:06:29.336Z,101320.00
2023-02-16T17:08:58.849Z,101285.00
2023-02-16T17:11:32.136Z,101276.00
2023-02-16T17:14:09.771Z,101315.00
2023-02-16T17:17:01.297Z,101318.00
2023-02-16T17:19:32.770Z,101331.00
2023-02-16T17:22:17.185Z,101319.00
2023-02-16T17:24:46.700Z,101323.00
2023-02-16T17:27:15.003Z,101278.00
2023-02-16T17:29:46.713Z,101297.00
2023-02-16T17:32:14.878Z,101306.00
2023-02-16T17:34:45.641Z,101325.00
2023-02-16T17:37:19.550Z,101317.00
2023-02-16T17:39:49.572Z,101306.00
2023-02-16T17:42:17.733Z,101310.00
2023-02-16T17:44:45.758Z,101275.00
2023-02-16T17:47:16.485Z,101285.00
2023-02-16T17:49:44.455Z,101261.00
2023-02-16T17:52:13.237Z,101268.00
2023-02-16T17:54:41.248Z,101256.00
2023-02-16T17:57:11.518Z,101270.00
2023-02-16T17:59:41.354Z,101271.00
2023-02-16T18:02:10.968Z,101270.00
2023-02-16T18:04:41.364Z,101253.00
2023-02-16T18:07:12.900Z,101248.00
2023-02-16T18:09:40.785Z,101243.00
2023-02-16T18:12:10.189Z,101285.00
2023-02-16T18:14:38.134Z,101254.00
2023-02-16T18:17:07.030Z,101281.00
2023-02-16T18:19:35.430Z,101297.00
2023-02-16T18:22:04.952Z,101259.00
2023-02-16T18:24:32.806Z,101285.00
2023-02-16T18:27:00.664Z,101282.00
2023-02-16T18:29:30.237Z,101244.00
2023-02-16T18:31:58.597Z,101271.00
2023-02-16T18:34:26.460Z,101268.00
2023-02-16T18:36:56.479Z,101261.00
2023-02-16T18:39:24.282Z,101249.00
2023-02-16T18:41:52.294Z,101279.00
2023-02-16T18:44:20.147Z,101238.00
2023-02-16T18:46:49.393Z,101280.00
2023-02-16T18:49:17.268Z,101230.00
2023-02-16T18:51:45.348Z,101258.00
2023-02-16T18:54:13.246Z,101269.00
2023-02-16T18:56:41.303Z,101226.00
2023-02-16T18:59:09.442Z,101265.00
2023-02-16T19:01:37.666Z,101255.00
2023-02-16T19:04:09.948Z,101240.00
2023-02-16T19:06:37.896Z,101234.00
2023-02-16T19:09:05.905Z,101254.00
2023-02-16T19:11:33.828Z,101245.00
2023-02-16T19:14:01.986Z,101245.00
2023-02-16T19:16:29.943Z,101249.00
2023-02-16T19:18:57.931Z,101227.00
2023-02-16T19:21:27.583Z,101248.00
2023-02-16T19:23:55.550Z,101216.00
2023-02-16T19:26:23.585Z,101218.00
2023-02-16T19:28:53.586Z,101257.00
2023-02-16T19:31:23.846Z,101257.00
2023-02-16T19:33:52.469Z,101236.00
2023-02-16T19:36:20.882Z,101254.00
2023-02-16T19:38:50.556Z,101239.00
2023-02-16T19:41:25.380Z,101239.00
2023-02-16T19:43:53.602Z,101223.00
2023-02-16T19:46:22.067Z,101222.00
2023-02-16T19:48:50.133Z,101239.00
2023-02-16T19:51:18.312Z,101212.00
2023-02-16T19:53:46.567Z,101201.00
2023-02-16T19:56:17.669Z,101186.00
2023-02-16T19:58:45.761Z,101173.00
2023-02-16T20:01:16.054Z,101218.00
2023-02-16T20:03:44.310Z,101213.00
2023-02-16T20:06:18.104Z,101219.00
2023-02-16T20:08:47.113Z,101209.00
2023-02-16T20:11:17.554Z,101220.00
2023-02-16T20:13:45.752Z,101209.00
2023-02-16T20:16:14.414Z,101220.00
2023-02-16T20:18:42.582Z,101186.00
2023-02-16T20:21:13.467Z,101213.00
2023-02-16T20:23:43.103Z,101218.00
2023-02-16T20:26:13.348Z,101198.00
2023-02-16T20:28:42.638Z,101209.00
2023-02-16T20:33:57.795Z,101212.00
2023-02-16T20:36:25.660Z,101209.00
2023-02-16T20:38:53.583Z,101198.00
2023-02-16T20:41:22.245Z,101203.00
2023-02-16T20:43:52.008Z,101180.00
2023-02-16T20:46:20.548Z,101206.00
2023-02-16T20:48:50.046Z,101176.00
2023-02-16T20:51:18.887Z,101203.00
2023-02-16T20:53:47.083Z,101207.00
2023-02-16T20:56:21.717Z,101196.00
2023-02-16T20:58:52.563Z,101202.00
2023-02-16T21:01:22.978Z,101210.00
2023-02-16T21:03:52.363Z,101199.00
2023-02-16T21:06:20.941Z,101211.00
2023-02-16T21:08:49.282Z,101194.00
2023-02-16T21:11:17.225Z,101209.00
2023-02-16T21:13:45.291Z,101193.00
2023-02-16T21:16:15.075Z,101198.00
2023-02-16T21:18:43.219Z,101194.00
2023-02-16T21:21:15.377Z,101187.00
2023-02-16T21:23:43.615Z,101180.00
2023-02-16T21:26:11.865Z,101171.00
2023-02-16T21:28:39.779Z,101170.00
2023-02-16T21:31:10.730Z,101175.00
2023-02-16T21:33:40.208Z,101151.00
2023-02-16T21:36:10.289Z,101160.00
2023-02-16T21:38:39.066Z,101158.00
2023-02-16T21:41:25.409Z,101159.00
2023-02-16T21:44:02.049Z,101138.00
2023-02-16T21:46:31.727Z,101151.00
2023-02-16T21:49:00.125Z,101163.00
2023-02-16T21:51:29.768Z,101161.00
2023-02-16T21:53:58.334Z,101168.00
2023-02-16T21:56:33.083Z,101153.00
2023-02-16T21:59:01.212Z,101147.00
2023-02-16T22:01:31.442Z,101150.00
2023-02-16T22:04:01.848Z,101159.00
2023-02-16T22:06:33.277Z,101148.00
2023-02-16T22:09:01.292Z,101131.00
2023-02-16T22:11:29.290Z,101137.00
2023-02-16T22:13:58.886Z,101137.00
2023-02-16T22:16:28.532Z,101107.00
2023-02-16T22:19:04.953Z,101137.00
2023-02-16T22:21:36.474Z,101126.00
2023-02-16T22:24:04.430Z,101129.00
2023-02-16T22:26:34.920Z,101127.00
2023-02-16T22:29:03.247Z,101113.00
2023-02-16T22:31:31.140Z,101113.00
2023-02-16T22:34:02.149Z,101111.00
2023-02-16T22:36:30.287Z,101114.00
2023-02-16T22:38:58.148Z,101110.00
2023-02-16T22:41:26.652Z,101112.00
2023-02-16T22:43:55.541Z,101101.00
2023-02-16T22:46:24.574Z,101116.00
2023-02-16T22:48:54.452Z,101093.00
2023-02-16T22:51:23.571Z,101107.00
2023-02-16T22:53:51.574Z,101103.00
2023-02-16T22:56:20.823Z,101103.00
2023-02-16T22:59:01.723Z,101099.00
2023-02-16T23:01:42.557Z,101101.00
2023-02-16T23:04:15.611Z,101101.00
2023-02-16T23:06:45.949Z,101100.00
2023-02-16T23:09:20.568Z,101081.00
2023-02-16T23:11:49.696Z,101073.00
2023-02-16T23:14:21.287Z,101096.00
2023-02-16T23:16:51.107Z,101079.00
2023-02-16T23:19:21.711Z,101067.00
2023-02-16T23:22:05.724Z,101084.00
2023-02-16T23:24:34.125Z,101080.00
2023-02-16T23:27:05.414Z,101057.00
2023-02-16T23:29:35.865Z,101075.00
2023-02-16T23:32:06.216Z,101069.00
2023-02-16T23:34:39.799Z,101046.00
2023-02-16T23:37:13.340Z,101065.00
2023-02-16T23:39:42.109Z,101056.00
2023-02-16T23:42:10.814Z,101059.00
2023-02-16T23:44:39.143Z,101041.00
2023-02-16T23:47:07.302Z,101050.00
2023-02-16T23:49:59.534Z,101039.00
2023-02-16T23:52:38.017Z,101033.00
2023-02-16T23:55:06.765Z,101018.00
2023-02-16T23:57:40.773Z,101010.00
